Time;durP1;ratioP1;P1;durP2;ratioP2;P2;SDS_P1;SDS_P2;PMS_P1;PMS_P2;Temp;Humidity;BMP_temperature;BMP_pressure;BME280_temperature;BME280_humidity;BME280_pressure;Samples;Min_cycle;Max_cycle;Signal;HPM_P1;HPM_P2
2024/01/29 00:00:45;;;;;;;8.02;5.35;;;;;;;5.84;65.00;102386.06;5074025;28;20016;-79
2024/01/29 00:03:11;;;;;;;9.23;5.32;;;;;;;5.85;65.08;102382.56;5077942;28;20443;-79
2024/01/29 00:05:36;;;;;;;11.13;5.63;;;;;;;5.99;64.63;102382.66;5076517;28;20035;-79
2024/01/29 00:08:02;;;;;;;8.38;5.28;;;;;;;5.99;64.18;102385.28;5077375;28;20038;-79
2024/01/29 00:10:27;;;;;;;7.72;4.82;;;;;;;6.00;65.53;102386.16;5074570;28;20027;-79
2024/01/29 00:12:53;;;;;;;9.02;5.18;;;;;;;6.02;64.31;102377.41;5073781;28;20040;-78
2024/01/29 00:15:18;;;;;;;7.38;4.93;;;;;;;6.03;64.28;102383.53;5063531;28;20046;-79
2024/01/29 00:17:44;;;;;;;10.68;5.38;;;;;;;5.96;64.32;102380.00;5070801;28;20032;-79
2024/01/29 00:20:09;;;;;;;9.32;5.35;;;;;;;5.99;65.31;102377.41;5075997;28;20024;-79
2024/01/29 00:22:35;;;;;;;8.30;5.38;;;;;;;5.96;64.60;102390.50;5076116;28;20555;-79
2024/01/29 00:25:01;;;;;;;7.50;5.43;;;;;;;5.91;65.59;102386.06;5079902;28;20032;-78
2024/01/29 00:27:27;;;;;;;8.52;5.35;;;;;;;5.80;65.96;102386.91;5081059;28;20032;-79
2024/01/29 00:29:52;;;;;;;7.95;5.10;;;;;;;5.80;67.13;102386.03;5073467;28;20099;-79
2024/01/29 00:32:18;;;;;;;9.18;5.40;;;;;;;5.78;65.37;102372.03;5068157;28;20575;-79
2024/01/29 00:34:44;;;;;;;8.93;5.40;;;;;;;5.79;64.94;102374.66;5067946;28;20409;-78
2024/01/29 00:37:09;;;;;;;10.68;6.10;;;;;;;5.82;65.13;102379.03;5071197;28;20020;-79
2024/01/29 00:39:35;;;;;;;9.50;5.53;;;;;;;5.69;65.31;102374.59;5061447;28;20024;-79
2024/01/29 00:42:00;;;;;;;9.38;5.47;;;;;;;5.83;64.95;102376.44;5063940;28;20048;-79
2024/01/29 00:44:26;;;;;;;10.38;5.35;;;;;;;5.86;65.32;102370.31;5062396;28;20013;-79
2024/01/29 00:46:51;;;;;;;7.88;5.20;;;;;;;5.77;65.25;102378.13;5062569;28;20040;-79
2024/01/29 00:49:16;;;;;;;9.48;6.07;;;;;;;5.77;65.07;102370.28;5068598;28;20364;-79
2024/01/29 00:51:42;;;;;;;8.38;5.30;;;;;;;5.88;64.87;102369.47;5073293;28;20454;-79
2024/01/29 00:54:07;;;;;;;9.50;4.90;;;;;;;5.78;65.16;102374.63;5066972;28;20024;-79
2024/01/29 00:56:32;;;;;;;7.07;5.28;;;;;;;5.81;65.06;102364.16;5070586;28;20025;-81
2024/01/29 00:58:58;;;;;;;8.00;5.57;;;;;;;5.85;64.38;102358.94;5066127;28;20433;-81
2024/01/29 01:01:23;;;;;;;6.82;5.47;;;;;;;5.99;64.64;102366.91;5067603;28;20396;-81
2024/01/29 01:03:49;;;;;;;9.48;5.38;;;;;;;6.10;64.18;102367.78;5065216;28;20059;-81
2024/01/29 01:06:14;;;;;;;6.85;5.57;;;;;;;5.83;64.89;102375.56;5061963;28;20458;-81
2024/01/29 01:08:39;;;;;;;9.20;5.82;;;;;;;5.72;65.30;102377.25;5066488;28;20373;-81
2024/01/29 01:11:05;;;;;;;10.93;6.00;;;;;;;5.52;66.12;102382.41;5064016;28;20446;-81
2024/01/29 01:13:30;;;;;;;9.35;6.35;;;;;;;5.48;67.39;102399.88;5063781;28;20021;-81
2024/01/29 01:15:55;;;;;;;9.60;5.47;;;;;;;5.55;66.16;102395.56;5064882;28;20072;-81
2024/01/29 01:18:21;;;;;;;9.15;5.68;;;;;;;5.55;66.04;102404.28;5063263;28;20028;-81
2024/01/29 01:20:46;;;;;;;10.43;5.85;;;;;;;5.49;65.76;102403.34;5068810;28;20041;-81
2024/01/29 01:23:12;;;;;;;7.32;4.93;;;;;;;5.84;65.49;102406.19;5067713;28;20031;-81
2024/01/29 01:25:37;;;;;;;8.10;4.97;;;;;;;5.87;65.29;102406.19;5062373;28;20028;-81
2024/01/29 01:28:02;;;;;;;8.57;6.05;;;;;;;5.86;65.05;102407.06;5064831;28;20023;-82
2024/01/29 01:30:28;;;;;;;7.05;5.32;;;;;;;5.89;64.81;102407.06;5065770;28;20060;-82
2024/01/29 01:32:53;;;;;;;10.00;5.30;;;;;;;5.91;64.63;102396.56;5066387;28;20027;-81
2024/01/29 01:35:18;;;;;;;8.27;5.72;;;;;;;5.95;64.89;102407.13;5068397;28;20028;-82
2024/01/29 01:37:44;;;;;;;9.55;5.32;;;;;;;5.92;64.88;102401.84;5062196;28;20111;-82
2024/01/29 01:40:10;;;;;;;10.88;5.97;;;;;;;5.92;64.56;102396.59;5066724;28;20103;-82
2024/01/29 01:42:39;;;;;;;9.73;5.95;;;;;;;5.86;65.01;102401.81;5071361;28;20097;-82
2024/01/29 01:45:05;;;;;;;8.52;5.10;;;;;;;5.85;65.08;102398.31;5065367;28;20029;-81
2024/01/29 01:47:31;;;;;;;7.75;5.20;;;;;;;5.86;65.06;102401.81;5069810;28;20052;-82
2024/01/29 01:49:57;;;;;;;8.48;5.38;;;;;;;5.84;65.76;102400.94;5063941;28;20512;-82
2024/01/29 01:52:23;;;;;;;7.65;5.20;;;;;;;5.80;65.90;102400.03;5065090;28;20116;-82
2024/01/29 01:54:49;;;;;;;9.55;5.55;;;;;;;5.54;66.08;102404.25;5062107;28;20112;-82
2024/01/29 01:57:15;;;;;;;8.27;5.55;;;;;;;5.79;65.38;102413.16;5070187;28;20492;-79
2024/01/29 01:59:41;;;;;;;11.32;5.93;;;;;;;5.69;65.78;102408.72;5069524;28;20368;-79
2024/01/29 02:02:07;;;;;;;10.98;6.05;;;;;;;5.50;66.24;102408.63;5072753;28;20066;-79
2024/01/29 02:04:33;;;;;;;11.68;5.82;;;;;;;5.51;66.13;102407.75;5068617;28;20093;-79
2024/01/29 02:06:59;;;;;;;9.05;5.72;;;;;;;5.31;66.40;102410.22;5069574;28;20024;-81
2024/01/29 02:09:25;;;;;;;8.10;6.15;;;;;;;5.09;67.50;102413.59;5063000;28;20033;-82
2024/01/29 02:11:50;;;;;;;9.60;5.22;;;;;;;5.10;67.73;102413.59;5059933;28;20025;-82
2024/01/29 02:14:16;;;;;;;10.65;6.47;;;;;;;5.14;67.59;102406.63;5061675;28;20033;-81
2024/01/29 02:16:41;;;;;;;10.10;5.93;;;;;;;5.10;68.05;102408.34;5078073;28;20024;-82
2024/01/29 02:19:16;;;;;;;10.43;6.20;;;;;;;4.93;68.26;102409.06;5065241;28;20027;-82
2024/01/29 02:21:42;;;;;;;10.18;6.07;;;;;;;4.94;68.69;102405.59;5063210;28;20399;-81
2024/01/29 02:24:08;;;;;;;9.23;5.97;;;;;;;4.86;68.98;102401.16;5071469;28;20122;-81
2024/01/29 02:26:33;;;;;;;11.38;6.13;;;;;;;4.82;69.07;102404.63;5067190;28;20039;-82
2024/01/29 02:28:58;;;;;;;9.63;5.88;;;;;;;4.77;69.36;102408.06;5067143;28;20103;-81
2024/01/29 02:31:24;;;;;;;12.13;6.18;;;;;;;4.73;70.05;102406.28;5066892;28;20294;-82
2024/01/29 02:33:50;;;;;;;7.47;5.57;;;;;;;4.73;69.86;102407.16;5067739;28;20028;-82
2024/01/29 02:36:16;;;;;;;11.00;5.90;;;;;;;4.70;70.06;102407.13;5073918;28;20040;-82
2024/01/29 02:38:42;;;;;;;9.43;5.78;;;;;;;4.69;70.12;102407.13;5065755;28;20028;-82
2024/01/29 02:41:08;;;;;;;9.43;6.20;;;;;;;4.69;69.90;102400.13;5070555;28;20028;-82
2024/01/29 02:43:33;;;;;;;9.15;5.63;;;;;;;4.72;69.90;102405.41;5068853;28;20046;-82
2024/01/29 02:45:59;;;;;;;8.45;5.68;;;;;;;4.63;70.49;102405.34;5061275;28;20082;-81
2024/01/29 02:48:24;;;;;;;7.88;6.20;;;;;;;4.61;69.99;102407.03;5064278;28;20040;-82
2024/01/29 02:50:49;;;;;;;8.45;5.80;;;;;;;4.61;70.87;102414.91;5064071;28;20024;-82
2024/01/29 02:53:14;;;;;;;8.13;5.90;;;;;;;4.66;70.82;102409.69;5066790;28;20039;-82
2024/01/29 02:55:41;;;;;;;10.07;6.30;;;;;;;4.64;70.23;102400.97;5063844;28;20013;-82
2024/01/29 02:58:06;;;;;;;9.95;6.28;;;;;;;4.65;70.42;102402.72;5066833;28;20028;-81
2024/01/29 03:00:32;;;;;;;8.50;6.05;;;;;;;4.58;71.15;102391.31;5068053;28;20372;-82
2024/01/29 03:02:57;;;;;;;10.00;6.30;;;;;;;4.56;70.03;102400.88;5065934;28;20036;-82
2024/01/29 03:05:23;;;;;;;9.05;5.90;;;;;;;4.46;71.08;102399.03;5065993;28;20532;-82
2024/01/29 03:07:48;;;;;;;8.43;6.07;;;;;;;4.41;70.90;102391.13;5066834;28;20039;-79
2024/01/29 03:10:13;;;;;;;8.35;5.22;;;;;;;4.57;70.46;102398.31;5066651;28;20475;-79
2024/01/29 03:12:39;;;;;;;10.50;6.40;;;;;;;4.54;70.67;102398.25;5067476;28;20550;-79
2024/01/29 03:15:05;;;;;;;8.38;5.55;;;;;;;4.59;70.48;102400.91;5062443;28;20028;-79
2024/01/29 03:17:31;;;;;;;9.77;6.07;;;;;;;4.58;70.42;102399.19;5060458;28;20107;-81
2024/01/29 03:19:56;;;;;;;9.63;6.05;;;;;;;4.57;70.58;102406.16;5057980;28;20453;-81
2024/01/29 03:22:22;;;;;;;9.05;6.03;;;;;;;4.56;70.58;102404.38;5057688;28;20555;-81
2024/01/29 03:24:47;;;;;;;9.75;6.20;;;;;;;4.60;70.38;102400.94;5057801;28;20028;-82
2024/01/29 03:27:12;;;;;;;8.70;5.72;;;;;;;4.60;70.39;102414.03;5061687;28;20496;-81
2024/01/29 03:29:38;;;;;;;12.02;6.43;;;;;;;4.60;71.04;102403.53;5063448;28;20028;-81
2024/01/29 03:32:04;;;;;;;8.88;5.35;;;;;;;4.52;70.85;102405.25;5064745;28;20028;-82
2024/01/29 03:34:29;;;;;;;10.50;6.07;;;;;;;4.46;70.77;102397.28;5064093;28;20035;-82
2024/01/29 03:36:54;;;;;;;7.90;6.07;;;;;;;4.46;70.95;102399.03;5065777;28;20025;-82
2024/01/29 03:39:19;;;;;;;11.35;6.95;;;;;;;4.34;71.02;102400.69;5062765;28;20077;-82
2024/01/29 03:41:45;;;;;;;9.60;5.75;;;;;;;4.27;71.63;102405.81;5062595;28;20136;-82
2024/01/29 03:44:10;;;;;;;8.63;5.82;;;;;;;4.16;71.73;102404.84;5063719;28;20036;-81
2024/01/29 03:46:36;;;;;;;9.63;5.95;;;;;;;4.14;71.65;102401.31;5063018;28;20025;-81
2024/01/29 03:49:01;;;;;;;9.63;5.82;;;;;;;4.21;72.33;102419.72;5062872;28;20035;-81
2024/01/29 03:51:26;;;;;;;11.50;5.80;;;;;;;4.20;72.03;102410.13;5064160;28;20020;-82
2024/01/29 03:53:52;;;;;;;9.20;5.75;;;;;;;4.23;72.12;102419.75;5062287;28;20436;-81
2024/01/29 03:56:17;;;;;;;8.27;5.15;;;;;;;4.24;72.53;102417.16;5063691;28;20559;-82
2024/01/29 03:58:42;;;;;;;6.78;5.43;;;;;;;4.19;72.60;102416.19;5064085;28;20538;-81
2024/01/29 04:01:08;;;;;;;8.77;6.55;;;;;;;4.20;72.31;102414.50;5061028;28;20109;-81
2024/01/29 04:03:33;;;;;;;9.85;6.60;;;;;;;4.26;72.46;102411.94;5062393;28;20035;-82
2024/01/29 04:05:59;;;;;;;9.55;5.47;;;;;;;4.25;72.38;102411.06;5063306;28;20035;-82
2024/01/29 04:08:24;;;;;;;7.57;5.85;;;;;;;4.22;72.84;102412.75;5069442;28;20446;-82
2024/01/29 04:10:49;;;;;;;8.20;5.80;;;;;;;4.20;73.18;102417.97;5061931;28;20462;-82
2024/01/29 04:13:15;;;;;;;9.27;5.40;;;;;;;4.19;73.14;102416.19;5068222;28;20086;-82
2024/01/29 04:15:40;;;;;;;7.82;5.65;;;;;;;4.15;73.00;102416.16;5081391;28;20556;-82
2024/01/29 04:18:06;;;;;;;9.35;5.78;;;;;;;4.07;72.72;102418.69;5071742;28;20059;-79
2024/01/29 04:20:31;;;;;;;13.15;6.45;;;;;;;4.08;73.03;102415.22;5074917;28;20024;-79
2024/01/29 04:22:56;;;;;;;9.15;5.97;;;;;;;4.09;73.49;102419.56;5075703;28;20031;-79
2024/01/29 04:25:22;;;;;;;9.23;5.70;;;;;;;4.05;73.62;102412.53;5075792;28;20024;-79
2024/01/29 04:27:48;;;;;;;8.18;5.70;;;;;;;4.06;74.11;102414.31;5074390;28;20031;-79
2024/01/29 04:30:14;;;;;;;8.55;6.43;;;;;;;4.08;73.88;102425.69;5077336;28;20083;-79
2024/01/29 04:32:39;;;;;;;9.68;5.80;;;;;;;4.07;73.90;102424.81;5078507;28;20059;-79
2024/01/29 04:35:05;;;;;;;11.75;5.97;;;;;;;4.19;73.70;102425.78;5076196;28;20032;-79
2024/01/29 04:37:31;;;;;;;10.18;5.53;;;;;;;4.23;73.73;102424.97;5075575;28;20032;-79
2024/01/29 04:39:56;;;;;;;9.55;6.10;;;;;;;4.25;73.51;102432.00;5084616;28;20024;-79
2024/01/29 04:42:21;;;;;;;10.20;5.15;;;;;;;4.26;74.01;102435.50;5074421;28;20514;-79
2024/01/29 04:44:47;;;;;;;9.63;6.10;;;;;;;4.25;73.80;102434.63;5072272;28;20021;-79
2024/01/29 04:47:12;;;;;;;9.50;5.57;;;;;;;4.24;73.80;102425.00;5080856;28;20060;-79
2024/01/29 04:49:37;;;;;;;10.00;6.03;;;;;;;4.26;73.70;102430.25;5063063;28;20025;-79
2024/01/29 04:52:03;;;;;;;8.15;5.43;;;;;;;4.27;73.83;102430.25;5070654;28;20024;-79
2024/01/29 04:54:30;;;;;;;9.73;5.88;;;;;;;4.22;73.49;102431.06;5071452;28;20032;-79
2024/01/29 04:56:55;;;;;;;9.88;6.32;;;;;;;4.20;73.68;102438.06;5071592;28;20036;-79
2024/01/29 04:59:20;;;;;;;11.00;6.15;;;;;;;4.18;73.58;102435.38;5071158;28;20043;-79
2024/01/29 05:01:46;;;;;;;8.38;5.60;;;;;;;4.23;73.42;102424.97;5071093;28;20075;-79
2024/01/29 05:04:11;;;;;;;9.20;5.70;;;;;;;4.23;72.98;102428.47;5072599;28;20692;-79
2024/01/29 05:06:36;;;;;;;7.90;5.88;;;;;;;4.16;73.24;102436.25;5067622;28;20077;-79
2024/01/29 05:09:02;;;;;;;8.70;5.60;;;;;;;4.09;73.51;102424.81;5070865;28;20380;-79
2024/01/29 05:11:27;;;;;;;7.97;5.32;;;;;;;4.01;73.73;102427.34;5077046;28;20017;-79
2024/01/29 05:13:55;;;;;;;10.48;7.53;;;;;;;4.00;73.29;102425.56;5070904;28;20346;-80
2024/01/29 05:16:21;;;;;;;9.43;5.95;;;;;;;3.98;73.55;102429.91;5074811;28;20040;-79
2024/01/29 05:18:47;;;;;;;10.25;6.03;;;;;;;3.96;74.05;102428.13;5075009;28;20032;-79
2024/01/29 05:21:13;;;;;;;6.55;4.93;;;;;;;3.97;73.97;102427.28;5072799;28;20025;-79
2024/01/29 05:23:38;;;;;;;10.90;6.35;;;;;;;3.97;74.02;102424.69;5077318;28;20449;-79
2024/01/29 05:26:04;;;;;;;11.30;6.03;;;;;;;3.97;73.55;102428.16;5078066;28;20510;-79
2024/01/29 05:28:30;;;;;;;10.80;6.90;;;;;;;3.97;73.63;102429.91;5074733;28;20553;-79
2024/01/29 05:30:55;;;;;;;10.25;5.85;;;;;;;3.57;75.06;102426.75;5077254;28;20024;-79
2024/01/29 05:33:21;;;;;;;8.38;5.80;;;;;;;3.46;75.64;102429.22;5077283;28;20077;-79
2024/01/29 05:35:46;;;;;;;9.63;5.85;;;;;;;3.39;75.79;102429.97;5076586;28;20032;-79
2024/01/29 05:38:11;;;;;;;9.52;6.22;;;;;;;3.35;76.04;102425.53;5075173;28;20375;-83
2024/01/29 05:40:37;;;;;;;8.60;5.57;;;;;;;3.35;76.28;102422.94;5081913;28;20028;-83
2024/01/29 05:43:02;;;;;;;8.45;6.10;;;;;;;3.38;75.59;102427.34;5073835;28;20387;-82
2024/01/29 05:45:28;;;;;;;8.68;5.63;;;;;;;3.12;76.52;102435.63;5071064;28;20071;-83
2024/01/29 05:47:53;;;;;;;13.27;6.45;;;;;;;3.13;76.98;102441.78;5083436;28;20032;-83
2024/01/29 05:50:18;;;;;;;8.02;5.28;;;;;;;3.10;77.21;102444.31;5071516;28;20030;-82
2024/01/29 05:52:44;;;;;;;8.35;5.97;;;;;;;3.09;77.38;102433.00;5075760;28;20113;-83
2024/01/29 05:55:09;;;;;;;10.35;6.53;;;;;;;3.07;76.98;102438.19;5064226;28;20052;-82
2024/01/29 05:57:35;;;;;;;10.38;6.28;;;;;;;3.09;77.48;102437.34;5073871;28;20503;-83
2024/01/29 06:00:03;;;;;;;8.82;6.00;;;;;;;3.13;77.83;102450.50;5075657;28;20458;-82
2024/01/29 06:02:28;;;;;;;11.95;6.72;;;;;;;3.14;77.66;102441.78;5078884;28;20078;-82
2024/01/29 06:04:53;;;;;;;9.57;5.93;;;;;;;3.28;77.74;102453.34;5057342;28;20527;-83
2024/01/29 06:07:19;;;;;;;9.40;5.68;;;;;;;3.28;78.42;102445.50;5079528;28;20092;-83
2024/01/29 06:09:44;;;;;;;8.20;5.95;;;;;;;3.36;78.49;102450.84;5070821;28;20240;-82
2024/01/29 06:12:09;;;;;;;10.13;7.03;;;;;;;3.99;76.89;102446.50;5075972;28;20060;-83
2024/01/29 06:14:35;;;;;;;10.32;5.80;;;;;;;4.17;76.35;102451.97;5079668;28;20025;-82
2024/01/29 06:17:00;;;;;;;7.30;5.90;;;;;;;4.32;75.26;102456.50;5080931;28;20012;-83
2024/01/29 06:19:25;;;;;;;11.93;6.28;;;;;;;4.33;74.91;102448.66;5082028;28;20508;-83
2024/01/29 06:21:51;;;;;;;13.35;5.90;;;;;;;4.41;74.96;102451.38;5078666;28;20027;-82
2024/01/29 06:24:17;;;;;;;10.25;6.13;;;;;;;4.45;74.89;102457.53;5069147;28;20031;-82
2024/01/29 06:26:42;;;;;;;9.80;6.95;;;;;;;4.20;75.95;102452.00;5065364;28;20085;-81
2024/01/29 06:29:08;;;;;;;8.48;6.22;;;;;;;4.39;74.56;102452.22;5068554;28;21036;-82
2024/01/29 06:31:38;;;;;;;8.93;5.97;;;;;;;4.44;74.67;102448.78;5068381;28;20021;-83
2024/01/29 06:34:04;;;;;;;9.55;5.95;;;;;;;4.46;74.49;102452.28;5068138;28;20040;-82
2024/01/29 06:36:30;;;;;;;8.10;6.13;;;;;;;4.62;74.54;102455.97;5069984;28;20223;-82
2024/01/29 06:38:58;;;;;;;8.15;5.45;;;;;;;4.71;74.16;102458.69;5077652;28;20601;-79
2024/01/29 06:41:24;;;;;;;9.18;5.78;;;;;;;4.70;73.69;102459.53;5072892;28;20028;-79
2024/01/29 06:43:50;;;;;;;9.07;5.85;;;;;;;4.78;74.01;102470.97;5075518;28;20373;-79
2024/01/29 06:46:16;;;;;;;8.77;5.63;;;;;;;4.81;73.46;102471.00;5074429;28;20039;-79
2024/01/29 06:48:42;;;;;;;8.60;6.00;;;;;;;4.84;73.66;102472.75;5072916;28;20032;-82
2024/01/29 06:51:07;;;;;;;10.20;5.85;;;;;;;4.86;73.74;102478.91;5074126;28;20024;-82
2024/01/29 06:53:34;;;;;;;10.52;5.60;;;;;;;4.83;73.42;102478.88;5072817;28;20035;-82
2024/01/29 06:55:59;;;;;;;8.07;5.18;;;;;;;4.86;73.32;102465.81;5069569;28;20028;-82
2024/01/29 06:58:25;;;;;;;9.13;6.32;;;;;;;4.82;73.94;102467.50;5078402;28;20053;-82
2024/01/29 07:00:51;;;;;;;8.30;5.70;;;;;;;4.84;73.93;102467.53;5068934;28;20096;-82
2024/01/29 07:03:17;;;;;;;9.38;6.28;;;;;;;4.89;73.56;102472.81;5086608;28;20387;-82
2024/01/29 07:05:43;;;;;;;8.88;5.95;;;;;;;4.88;73.44;102477.16;5070376;28;20033;-82
2024/01/29 07:08:08;;;;;;;9.70;5.70;;;;;;;4.88;73.18;102479.78;5073885;28;20287;-82
2024/01/29 07:10:33;;;;;;;9.48;6.47;;;;;;;4.89;73.47;102478.91;5071452;28;20032;-82
2024/01/29 07:12:58;;;;;;;10.73;6.32;;;;;;;4.93;73.45;102485.06;5069253;28;20040;-82
2024/01/29 07:15:24;;;;;;;9.75;6.07;;;;;;;4.85;73.45;102492.88;5073529;28;20021;-82
2024/01/29 07:17:49;;;;;;;10.13;6.53;;;;;;;4.90;73.42;102496.44;5074866;28;20077;-82
2024/01/29 07:20:15;;;;;;;8.75;5.80;;;;;;;4.89;73.48;102494.66;5065808;28;20106;-82
2024/01/29 07:22:42;;;;;;;9.38;6.20;;;;;;;4.88;73.54;102494.63;5069620;28;20029;-82
2024/01/29 07:25:08;;;;;;;9.52;6.22;;;;;;;4.74;73.93;102502.34;5075744;28;20025;-82
2024/01/29 07:27:33;;;;;;;11.95;6.70;;;;;;;4.85;73.96;102499.00;5065514;28;20465;-83
2024/01/29 07:29:59;;;;;;;9.50;6.25;;;;;;;5.00;73.36;102506.13;5075234;28;20495;-81
2024/01/29 07:32:31;;;;;;;10.85;6.95;;;;;;;4.95;73.77;102505.22;5076924;28;20052;-82
2024/01/29 07:34:56;;;;;;;;;;;;;;;5.22;73.03;102519.41;5068469;28;20391;-82
2024/01/29 07:37:21;;;;;;;9.70;6.20;;;;;;;5.14;73.51;102508.88;5071680;28;19973;-81
2024/01/29 07:39:47;;;;;;;10.13;5.93;;;;;;;5.25;73.30;102514.22;5069190;28;20031;-81
2024/01/29 07:42:12;;;;;;;10.30;6.47;;;;;;;5.23;73.41;102501.09;5074584;28;20024;-81
2024/01/29 07:44:38;;;;;;;12.38;5.88;;;;;;;5.29;73.11;102511.63;5061527;28;20032;-82
2024/01/29 07:47:03;;;;;;;9.57;6.28;;;;;;;5.25;73.23;102508.97;5060492;28;20021;-81
2024/01/29 07:49:31;;;;;;;9.45;6.18;;;;;;;5.28;73.48;102512.50;5059020;28;20028;-79
2024/01/29 07:51:57;;;;;;;9.57;6.32;;;;;;;5.45;73.07;102517.00;5086722;28;20025;-79
2024/01/29 07:54:22;;;;;;;10.10;5.70;;;;;;;5.54;72.96;102531.06;5066077;28;20039;-79
2024/01/29 07:56:48;;;;;;;9.32;5.95;;;;;;;5.76;72.75;102529.47;5075214;28;20024;-78
2024/01/29 07:59:13;;;;;;;9.88;6.05;;;;;;;5.79;72.37;102528.63;5070350;28;20033;-82
2024/01/29 08:01:39;;;;;;;7.20;5.45;;;;;;;5.80;72.38;102526.00;5066910;28;20135;-82
2024/01/29 08:04:05;;;;;;;8.38;5.13;;;;;;;5.83;72.36;102533.91;5056940;28;20036;-82
2024/01/29 08:06:31;;;;;;;9.45;5.70;;;;;;;5.89;72.35;102531.31;5072350;28;20036;-82
2024/01/29 08:08:57;;;;;;;9.32;5.90;;;;;;;5.97;72.32;102531.41;5066059;28;20094;-82
2024/01/29 08:11:22;;;;;;;10.82;6.05;;;;;;;6.11;72.11;102534.13;5072832;28;20028;-81
2024/01/29 08:13:48;;;;;;;10.20;6.00;;;;;;;6.17;72.07;102525.38;5058239;28;21360;-82
2024/01/29 08:16:13;;;;;;;9.10;5.78;;;;;;;6.28;71.62;102529.81;5062614;28;20032;-82
2024/01/29 08:18:39;;;;;;;7.10;5.38;;;;;;;6.37;71.44;102523.72;5063543;28;20039;-82
2024/01/29 08:21:04;;;;;;;12.02;6.82;;;;;;;6.47;71.47;102525.50;5060846;28;20392;-81
2024/01/29 08:23:30;;;;;;;8.50;5.53;;;;;;;6.66;71.08;102531.69;5062397;28;20480;-81
2024/01/29 08:25:55;;;;;;;10.02;6.15;;;;;;;6.88;70.66;102536.16;5063807;28;20028;-81
2024/01/29 08:28:21;;;;;;;8.50;5.97;;;;;;;7.22;69.49;102533.56;5064385;28;20024;-80
2024/01/29 08:30:47;;;;;;;6.97;5.10;;;;;;;7.55;68.93;102534.44;5069836;28;20483;-85
2024/01/29 08:33:12;;;;;;;8.02;5.20;;;;;;;7.92;67.87;102535.28;5066666;28;20028;-82
2024/01/29 08:35:38;;;;;;;8.43;5.30;;;;;;;8.48;65.93;102534.28;5068530;28;20012;-82
2024/01/29 08:38:04;;;;;;;10.25;5.82;;;;;;;8.79;64.57;102539.41;5074050;28;20032;-82
2024/01/29 08:40:30;;;;;;;8.75;5.53;;;;;;;8.79;64.58;102535.00;5067756;28;20360;-81
2024/01/29 08:42:56;;;;;;;10.10;4.78;;;;;;;8.92;64.41;102523.50;5073736;28;20066;-82
2024/01/29 08:45:21;;;;;;;8.98;5.25;;;;;;;8.94;63.96;102539.31;5068790;28;20059;-82
2024/01/29 08:47:46;;;;;;;7.68;5.07;;;;;;;9.09;63.77;102540.97;5066318;28;20028;-82
2024/01/29 08:50:12;;;;;;;6.15;4.47;;;;;;;9.08;63.55;102540.09;5073338;28;20446;-82
2024/01/29 08:52:39;;;;;;;6.82;4.63;;;;;;;9.42;63.02;102535.47;5067920;28;20048;-82
2024/01/29 08:55:06;;;;;;;7.65;5.03;;;;;;;9.59;62.29;102535.28;5069777;28;20067;-82
2024/01/29 08:57:32;;;;;;;7.90;4.97;;;;;;;9.86;61.27;102533.28;5073661;28;20081;-81
2024/01/29 08:59:57;;;;;;;7.00;4.93;;;;;;;10.00;61.25;102536.66;5074547;28;20036;-81
2024/01/29 09:02:27;;;;;;;10.18;5.38;;;;;;;9.87;60.55;102541.19;5079721;28;20646;-82
2024/01/29 09:04:53;;;;;;;8.45;6.20;;;;;;;9.79;60.66;102534.22;5079147;28;20074;-83
2024/01/29 09:07:18;;;;;;;6.38;5.00;;;;;;;9.73;61.03;102536.94;5073925;28;20063;-84
2024/01/29 09:09:44;;;;;;;8.23;4.65;;;;;;;9.66;62.00;102525.56;5076705;28;20577;-85
2024/01/29 09:12:09;;;;;;;6.97;4.90;;;;;;;9.76;61.47;102526.34;5071223;28;20043;-84
2024/01/29 09:14:34;;;;;;;7.15;4.40;;;;;;;10.07;61.16;102529.53;5078403;28;20446;-84
2024/01/29 09:16:59;;;;;;;9.50;5.47;;;;;;;10.12;60.68;102517.19;5076973;28;20069;-83
2024/01/29 09:19:25;;;;;;;7.93;5.20;;;;;;;10.05;60.75;102526.06;5081902;28;20039;-83
2024/01/29 09:21:50;;;;;;;8.23;5.22;;;;;;;9.99;60.74;102523.47;5081323;28;20027;-82
2024/01/29 09:24:17;;;;;;;7.85;4.78;;;;;;;9.75;61.47;102522.84;5069910;28;20122;-79
2024/01/29 09:26:42;;;;;;;7.10;5.03;;;;;;;9.79;61.63;102521.94;5074343;28;20033;-82
2024/01/29 09:29:08;;;;;;;9.60;5.90;;;;;;;9.74;61.54;102526.34;5071643;28;20040;-83
2024/01/29 09:31:34;;;;;;;8.52;5.32;;;;;;;9.76;61.95;102526.34;5070801;28;20024;-81
2024/01/29 09:33:59;;;;;;;10.98;5.53;;;;;;;9.67;61.80;102528.19;5065903;28;20078;-83
2024/01/29 09:36:24;;;;;;;8.45;5.68;;;;;;;9.38;62.95;102536.38;5075987;28;20496;-83
2024/01/29 09:38:50;;;;;;;9.15;5.88;;;;;;;9.56;63.11;102540.63;5071416;28;20028;-83
2024/01/29 09:41:15;;;;;;;8.63;5.75;;;;;;;9.97;61.86;102542.84;5075261;28;20059;-84
2024/01/29 09:43:44;;;;;;;7.55;5.32;;;;;;;10.83;59.80;102536.56;5070906;28;20024;-83
2024/01/29 09:46:13;;;;;;;6.55;5.15;;;;;;;11.63;58.56;102543.25;5066521;28;20111;-83
2024/01/29 09:48:41;;;;;;;8.50;5.50;;;;;;;12.47;56.12;102537.25;5066866;28;20025;-83
2024/01/29 09:51:07;;;;;;;7.65;4.70;;;;;;;13.50;53.48;102550.88;5071643;28;20188;-83
2024/01/29 09:53:35;;;;;;;7.47;5.03;;;;;;;13.69;51.17;102537.97;5068271;28;20392;-84
2024/01/29 09:56:01;;;;;;;6.30;4.75;;;;;;;14.21;52.11;102548.06;5065420;28;20024;-83
2024/01/29 09:58:26;;;;;;;7.65;5.40;;;;;;;14.89;48.38;102543.47;5075447;28;20054;-84
2024/01/29 10:00:53;;;;;;;7.30;4.90;;;;;;;15.15;48.64;102542.63;5070552;28;20032;-85
2024/01/29 10:03:28;;;;;;;8.68;5.10;;;;;;;15.01;47.46;102538.66;5068316;28;20044;-85
2024/01/29 10:05:54;;;;;;;8.52;5.40;;;;;;;15.63;48.60;102542.81;5077004;28;20056;-84
2024/01/29 10:08:24;;;;;;;7.68;5.00;;;;;;;16.15;46.88;102548.16;5071226;28;20031;-81
2024/01/29 10:10:51;;;;;;;8.80;5.82;;;;;;;15.95;45.71;102554.22;5074580;28;20024;-84
2024/01/29 10:13:16;;;;;;;5.25;4.70;;;;;;;16.59;47.07;102554.50;5066413;28;20465;-84
2024/01/29 10:15:43;;;;;;;9.68;5.45;;;;;;;16.77;46.18;102553.81;5070240;28;20104;-83
2024/01/29 10:18:12;;;;;;;8.15;5.05;;;;;;;17.51;43.09;102565.09;5065395;28;20027;-83
2024/01/29 10:20:38;;;;;;;9.23;5.35;;;;;;;17.60;41.74;102569.19;5079218;28;20071;-82
2024/01/29 10:23:04;;;;;;;6.78;5.53;;;;;;;17.48;45.38;102557.19;5074169;28;20114;-82
2024/01/29 10:25:31;;;;;;;7.45;5.78;;;;;;;16.72;42.67;102565.63;5070440;28;20028;-81
2024/01/29 10:28:12;;;;;;;8.65;4.88;;;;;;;17.81;43.06;102571.00;5076346;28;20100;-83
2024/01/29 10:30:39;;;;;;;7.43;5.55;;;;;;;18.76;40.98;102556.03;5071998;28;20484;-82
2024/01/29 10:33:06;;;;;;;9.50;5.97;;;;;;;18.72;40.95;102569.66;5076789;28;20029;-83
2024/01/29 10:35:31;;;;;;;8.05;5.45;;;;;;;19.44;39.43;102567.00;5073770;28;20361;-83
2024/01/29 10:38:06;;;;;;;8.35;5.68;;;;;;;19.74;40.82;102574.50;5081845;28;20031;-83
2024/01/29 10:40:33;;;;;;;7.07;5.40;;;;;;;19.85;39.84;102567.63;5070522;28;20020;-83
2024/01/29 10:42:59;;;;;;;6.63;5.28;;;;;;;18.99;40.11;102570.16;5078608;28;20526;-83
2024/01/29 10:45:25;;;;;;;6.72;5.05;;;;;;;18.48;39.95;102564.47;5070714;28;20032;-83
2024/01/29 10:48:07;;;;;;;8.13;5.63;;;;;;;19.11;41.05;102564.19;5076814;28;20043;-82
2024/01/29 10:50:33;;;;;;;7.30;5.03;;;;;;;20.04;38.14;102569.34;5077564;28;20582;-83
2024/01/29 10:53:00;;;;;;;7.75;5.47;;;;;;;20.49;37.44;102559.84;5071592;28;20038;-82
2024/01/29 10:55:30;;;;;;;6.22;5.35;;;;;;;20.87;36.74;102557.69;5071448;28;20047;-82
2024/01/29 10:58:00;;;;;;;7.05;5.53;;;;;;;21.09;36.33;102570.81;5068811;28;20102;-83
2024/01/29 11:00:26;;;;;;;7.57;5.38;;;;;;;21.32;36.04;102574.91;5065050;28;20024;-83
2024/01/29 11:02:52;;;;;;;7.82;5.78;;;;;;;21.39;36.08;102579.81;5070460;28;20036;-82
2024/01/29 11:05:18;;;;;;;7.32;5.70;;;;;;;21.77;36.10;102571.31;5067464;28;20099;-81
2024/01/29 11:07:45;;;;;;;6.38;5.43;;;;;;;22.14;36.01;102569.97;5072546;28;20112;-83
2024/01/29 11:10:20;;;;;;;12.88;5.75;;;;;;;22.13;34.52;102576.31;5066209;28;20037;-83
2024/01/29 11:12:48;;;;;;;7.78;5.75;;;;;;;21.81;34.52;102572.84;5073751;28;20032;-81
2024/01/29 11:15:14;;;;;;;7.55;5.45;;;;;;;21.56;34.27;102569.91;5071024;28;20035;-87
2024/01/29 11:17:41;;;;;;;7.63;5.95;;;;;;;21.46;36.02;102569.59;5068692;28;20032;-82
2024/01/29 11:20:12;;;;;;;6.88;5.82;;;;;;;21.92;36.04;102566.84;5063276;28;20479;-83
2024/01/29 11:22:39;;;;;;;6.32;5.65;;;;;;;22.20;34.69;102566.06;5067380;28;20036;-83